sensor_id;sensor_type;location;lat;lon;timestamp;P1;durP1;ratioP1;P2;durP2;ratioP2
62535;SDS011;63050;47.514;18.920;2023-05-14T00:00:30;6.90;;;6.30;;
62535;SDS011;63050;47.514;18.920;2023-05-14T00:05:31;7.60;;;6.00;;
62535;SDS011;63050;47.514;18.920;2023-05-14T00:10:33;7.10;;;5.80;;
62535;SDS011;63050;47.514;18.920;2023-05-14T00:15:35;6.10;;;5.30;;
62535;SDS011;63050;47.514;18.920;2023-05-14T00:20:37;6.50;;;5.90;;
62535;SDS011;63050;47.514;18.920;2023-05-14T00:25:39;7.50;;;5.40;;
62535;SDS011;63050;47.514;18.920;2023-05-14T00:30:40;6.90;;;5.80;;
62535;SDS011;63050;47.514;18.920;2023-05-14T00:35:43;8.50;;;5.80;;
62535;SDS011;63050;47.514;18.920;2023-05-14T00:40:45;10.20;;;5.70;;
62535;SDS011;63050;47.514;18.920;2023-05-14T00:45:51;5.90;;;5.40;;
62535;SDS011;63050;47.514;18.920;2023-05-14T00:50:53;6.10;;;5.40;;
62535;SDS011;63050;47.514;18.920;2023-05-14T00:55:56;7.70;;;5.40;;
62535;SDS011;63050;47.514;18.920;2023-05-14T01:00:57;7.00;;;5.10;;
62535;SDS011;63050;47.514;18.920;2023-05-14T01:16:26;7.50;;;5.30;;
62535;SDS011;63050;47.514;18.920;2023-05-14T01:26:35;5.80;;;5.20;;
62535;SDS011;63050;47.514;18.920;2023-05-14T01:31:37;6.10;;;5.40;;
62535;SDS011;63050;47.514;18.920;2023-05-14T01:36:40;7.90;;;5.00;;
62535;SDS011;63050;47.514;18.920;2023-05-14T01:41:43;9.50;;;5.40;;
62535;SDS011;63050;47.514;18.920;2023-05-14T01:46:45;5.90;;;5.30;;
62535;SDS011;63050;47.514;18.920;2023-05-14T01:51:47;6.60;;;5.00;;
62535;SDS011;63050;47.514;18.920;2023-05-14T01:56:48;5.80;;;5.20;;
62535;SDS011;63050;47.514;18.920;2023-05-14T02:01:51;6.70;;;5.20;;
62535;SDS011;63050;47.514;18.920;2023-05-14T02:06:53;5.30;;;4.80;;
62535;SDS011;63050;47.514;18.920;2023-05-14T02:11:54;6.80;;;5.90;;
62535;SDS011;63050;47.514;18.920;2023-05-14T02:16:55;6.00;;;4.90;;
62535;SDS011;63050;47.514;18.920;2023-05-14T02:21:58;5.70;;;4.80;;
62535;SDS011;63050;47.514;18.920;2023-05-14T02:27:01;6.10;;;5.20;;
62535;SDS011;63050;47.514;18.920;2023-05-14T02:32:03;7.20;;;5.20;;
62535;SDS011;63050;47.514;18.920;2023-05-14T02:37:05;5.20;;;4.70;;
62535;SDS011;63050;47.514;18.920;2023-05-14T02:42:07;6.10;;;4.90;;
62535;SDS011;63050;47.514;18.920;2023-05-14T02:47:08;6.50;;;4.80;;
62535;SDS011;63050;47.514;18.920;2023-05-14T02:52:10;5.00;;;4.20;;
62535;SDS011;63050;47.514;18.920;2023-05-14T02:57:11;5.80;;;4.90;;
62535;SDS011;63050;47.514;18.920;2023-05-14T03:02:13;6.70;;;4.80;;
62535;SDS011;63050;47.514;18.920;2023-05-14T03:07:15;5.30;;;4.40;;
62535;SDS011;63050;47.514;18.920;2023-05-14T03:12:17;6.80;;;4.80;;
62535;SDS011;63050;47.514;18.920;2023-05-14T03:17:18;6.00;;;4.40;;
62535;SDS011;63050;47.514;18.920;2023-05-14T03:22:20;6.80;;;4.50;;
62535;SDS011;63050;47.514;18.920;2023-05-14T03:27:22;5.30;;;4.80;;
62535;SDS011;63050;47.514;18.920;2023-05-14T03:32:24;4.80;;;4.20;;
62535;SDS011;63050;47.514;18.920;2023-05-14T03:37:26;5.80;;;4.60;;
62535;SDS011;63050;47.514;18.920;2023-05-14T03:42:27;5.80;;;4.60;;
62535;SDS011;63050;47.514;18.920;2023-05-14T03:47:28;5.20;;;4.40;;
62535;SDS011;63050;47.514;18.920;2023-05-14T03:52:30;7.10;;;4.60;;
62535;SDS011;63050;47.514;18.920;2023-05-14T03:57:31;7.70;;;4.80;;
62535;SDS011;63050;47.514;18.920;2023-05-14T04:02:32;5.00;;;4.00;;
62535;SDS011;63050;47.514;18.920;2023-05-14T04:07:34;5.00;;;4.50;;
62535;SDS011;63050;47.514;18.920;2023-05-14T04:12:35;5.50;;;4.00;;
62535;SDS011;63050;47.514;18.920;2023-05-14T04:17:37;5.70;;;4.20;;
62535;SDS011;63050;47.514;18.920;2023-05-14T04:22:39;6.10;;;4.40;;
62535;SDS011;63050;47.514;18.920;2023-05-14T04:27:41;4.70;;;3.90;;
62535;SDS011;63050;47.514;18.920;2023-05-14T04:32:42;5.30;;;4.20;;
62535;SDS011;63050;47.514;18.920;2023-05-14T04:37:44;4.90;;;4.00;;
62535;SDS011;63050;47.514;18.920;2023-05-14T04:42:46;6.20;;;4.10;;
62535;SDS011;63050;47.514;18.920;2023-05-14T04:47:47;4.50;;;4.10;;
62535;SDS011;63050;47.514;18.920;2023-05-14T04:52:49;4.90;;;4.10;;
62535;SDS011;63050;47.514;18.920;2023-05-14T04:57:50;4.30;;;3.90;;
62535;SDS011;63050;47.514;18.920;2023-05-14T05:02:51;6.00;;;4.00;;
62535;SDS011;63050;47.514;18.920;2023-05-14T05:07:53;6.10;;;4.10;;
62535;SDS011;63050;47.514;18.920;2023-05-14T05:12:54;5.90;;;4.60;;
62535;SDS011;63050;47.514;18.920;2023-05-14T05:17:56;6.40;;;4.60;;
62535;SDS011;63050;47.514;18.920;2023-05-14T05:22:57;5.10;;;4.60;;
62535;SDS011;63050;47.514;18.920;2023-05-14T05:27:59;6.30;;;5.80;;
62535;SDS011;63050;47.514;18.920;2023-05-14T05:33:00;8.70;;;6.10;;
62535;SDS011;63050;47.514;18.920;2023-05-14T05:38:02;7.10;;;6.50;;
62535;SDS011;63050;47.514;18.920;2023-05-14T05:43:03;7.40;;;6.00;;
62535;SDS011;63050;47.514;18.920;2023-05-14T05:48:04;9.70;;;6.10;;
62535;SDS011;63050;47.514;18.920;2023-05-14T05:53:06;6.80;;;5.60;;
62535;SDS011;63050;47.514;18.920;2023-05-14T05:58:08;7.80;;;5.40;;
62535;SDS011;63050;47.514;18.920;2023-05-14T06:03:10;6.10;;;4.70;;
62535;SDS011;63050;47.514;18.920;2023-05-14T06:08:12;6.90;;;4.70;;
62535;SDS011;63050;47.514;18.920;2023-05-14T06:13:13;6.60;;;5.40;;
62535;SDS011;63050;47.514;18.920;2023-05-14T06:18:14;5.90;;;5.10;;
62535;SDS011;63050;47.514;18.920;2023-05-14T06:23:15;7.10;;;6.30;;
62535;SDS011;63050;47.514;18.920;2023-05-14T06:28:17;8.10;;;7.40;;
62535;SDS011;63050;47.514;18.920;2023-05-14T06:33:18;6.90;;;6.20;;
62535;SDS011;63050;47.514;18.920;2023-05-14T06:38:23;8.60;;;6.60;;
62535;SDS011;63050;47.514;18.920;2023-05-14T06:43:24;7.70;;;6.90;;
62535;SDS011;63050;47.514;18.920;2023-05-14T06:48:26;6.20;;;5.60;;
62535;SDS011;63050;47.514;18.920;2023-05-14T06:53:28;6.60;;;5.60;;
62535;SDS011;63050;47.514;18.920;2023-05-14T06:58:30;7.70;;;6.70;;
62535;SDS011;63050;47.514;18.920;2023-05-14T07:03:31;9.10;;;6.40;;
62535;SDS011;63050;47.514;18.920;2023-05-14T07:08:34;7.50;;;6.60;;
62535;SDS011;63050;47.514;18.920;2023-05-14T07:13:35;7.90;;;7.20;;
62535;SDS011;63050;47.514;18.920;2023-05-14T07:18:36;9.70;;;6.80;;
62535;SDS011;63050;47.514;18.920;2023-05-14T07:23:38;8.00;;;7.20;;
62535;SDS011;63050;47.514;18.920;2023-05-14T07:28:39;7.20;;;6.50;;
62535;SDS011;63050;47.514;18.920;2023-05-14T07:33:40;7.80;;;6.70;;
62535;SDS011;63050;47.514;18.920;2023-05-14T07:38:41;6.80;;;5.90;;
62535;SDS011;63050;47.514;18.920;2023-05-14T07:43:43;7.30;;;5.90;;
62535;SDS011;63050;47.514;18.920;2023-05-14T07:48:44;7.20;;;5.70;;
62535;SDS011;63050;47.514;18.920;2023-05-14T07:53:45;6.80;;;5.30;;
62535;SDS011;63050;47.514;18.920;2023-05-14T07:58:46;6.90;;;6.20;;
62535;SDS011;63050;47.514;18.920;2023-05-14T08:03:47;6.60;;;5.50;;
62535;SDS011;63050;47.514;18.920;2023-05-14T08:08:49;5.90;;;5.40;;
62535;SDS011;63050;47.514;18.920;2023-05-14T08:13:50;7.20;;;6.20;;
62535;SDS011;63050;47.514;18.920;2023-05-14T08:18:51;8.90;;;6.90;;
62535;SDS011;63050;47.514;18.920;2023-05-14T08:23:52;7.70;;;6.90;;
62535;SDS011;63050;47.514;18.920;2023-05-14T08:28:53;6.50;;;5.50;;
62535;SDS011;63050;47.514;18.920;2023-05-14T08:33:55;6.50;;;6.00;;
62535;SDS011;63050;47.514;18.920;2023-05-14T08:38:56;7.00;;;6.10;;
62535;SDS011;63050;47.514;18.920;2023-05-14T08:44:13;6.50;;;5.90;;
62535;SDS011;63050;47.514;18.920;2023-05-14T08:54:40;6.70;;;6.00;;
62535;SDS011;63050;47.514;18.920;2023-05-14T08:59:41;7.60;;;6.90;;
62535;SDS011;63050;47.514;18.920;2023-05-14T09:04:42;6.70;;;6.00;;
62535;SDS011;63050;47.514;18.920;2023-05-14T09:09:44;7.00;;;6.30;;
62535;SDS011;63050;47.514;18.920;2023-05-14T09:14:46;6.50;;;5.80;;
62535;SDS011;63050;47.514;18.920;2023-05-14T09:19:48;7.40;;;5.60;;
62535;SDS011;63050;47.514;18.920;2023-05-14T09:25:05;6.10;;;5.50;;
62535;SDS011;63050;47.514;18.920;2023-05-14T09:30:09;8.60;;;7.20;;
62535;SDS011;63050;47.514;18.920;2023-05-14T09:35:13;7.50;;;6.20;;
62535;SDS011;63050;47.514;18.920;2023-05-14T09:40:19;7.00;;;6.00;;
62535;SDS011;63050;47.514;18.920;2023-05-14T09:45:22;6.80;;;5.80;;
62535;SDS011;63050;47.514;18.920;2023-05-14T09:50:24;8.40;;;6.20;;
62535;SDS011;63050;47.514;18.920;2023-05-14T09:55:25;8.90;;;6.00;;
62535;SDS011;63050;47.514;18.920;2023-05-14T10:00:27;7.10;;;6.40;;
62535;SDS011;63050;47.514;18.920;2023-05-14T10:05:29;6.40;;;5.80;;
62535;SDS011;63050;47.514;18.920;2023-05-14T10:10:38;7.10;;;6.40;;
62535;SDS011;63050;47.514;18.920;2023-05-14T10:15:46;7.10;;;5.90;;
62535;SDS011;63050;47.514;18.920;2023-05-14T10:20:58;7.60;;;5.60;;
62535;SDS011;63050;47.514;18.920;2023-05-14T10:26:04;7.30;;;6.50;;
62535;SDS011;63050;47.514;18.920;2023-05-14T10:31:07;7.30;;;6.30;;
62535;SDS011;63050;47.514;18.920;2023-05-14T10:36:09;6.20;;;5.60;;
62535;SDS011;63050;47.514;18.920;2023-05-14T10:41:12;7.30;;;5.70;;
62535;SDS011;63050;47.514;18.920;2023-05-14T10:46:15;6.60;;;5.40;;
62535;SDS011;63050;47.514;18.920;2023-05-14T10:51:16;6.30;;;5.20;;
62535;SDS011;63050;47.514;18.920;2023-05-14T10:56:20;7.10;;;5.70;;
62535;SDS011;63050;47.514;18.920;2023-05-14T11:01:22;6.80;;;5.90;;
62535;SDS011;63050;47.514;18.920;2023-05-14T11:06:23;5.60;;;5.10;;
62535;SDS011;63050;47.514;18.920;2023-05-14T11:11:26;6.20;;;5.30;;
62535;SDS011;63050;47.514;18.920;2023-05-14T11:16:27;7.50;;;6.10;;
62535;SDS011;63050;47.514;18.920;2023-05-14T11:21:30;6.70;;;5.90;;
62535;SDS011;63050;47.514;18.920;2023-05-14T11:26:33;8.70;;;6.70;;
62535;SDS011;63050;47.514;18.920;2023-05-14T11:31:35;9.30;;;6.50;;
62535;SDS011;63050;47.514;18.920;2023-05-14T11:36:37;7.00;;;6.30;;
62535;SDS011;63050;47.514;18.920;2023-05-14T11:41:42;7.10;;;6.40;;
62535;SDS011;63050;47.514;18.920;2023-05-14T11:46:55;9.50;;;7.50;;
62535;SDS011;63050;47.514;18.920;2023-05-14T11:51:57;9.20;;;7.50;;
62535;SDS011;63050;47.514;18.920;2023-05-14T11:56:58;9.30;;;8.20;;
62535;SDS011;63050;47.514;18.920;2023-05-14T12:02:03;9.40;;;8.30;;
62535;SDS011;63050;47.514;18.920;2023-05-14T12:07:09;8.80;;;7.70;;
62535;SDS011;63050;47.514;18.920;2023-05-14T12:12:19;7.60;;;6.90;;
62535;SDS011;63050;47.514;18.920;2023-05-14T12:22:22;6.90;;;5.90;;
62535;SDS011;63050;47.514;18.920;2023-05-14T12:27:27;7.50;;;6.70;;
62535;SDS011;63050;47.514;18.920;2023-05-14T12:37:33;6.50;;;5.80;;
62535;SDS011;63050;47.514;18.920;2023-05-14T12:42:37;5.30;;;4.80;;
62535;SDS011;63050;47.514;18.920;2023-05-14T12:47:38;6.80;;;5.30;;
62535;SDS011;63050;47.514;18.920;2023-05-14T12:52:40;6.00;;;5.10;;
62535;SDS011;63050;47.514;18.920;2023-05-14T12:57:41;6.90;;;5.70;;
62535;SDS011;63050;47.514;18.920;2023-05-14T13:02:42;5.20;;;4.70;;
62535;SDS011;63050;47.514;18.920;2023-05-14T13:07:44;6.90;;;5.10;;
62535;SDS011;63050;47.514;18.920;2023-05-14T13:12:46;7.00;;;5.80;;
62535;SDS011;63050;47.514;18.920;2023-05-14T13:17:47;5.60;;;5.00;;
62535;SDS011;63050;47.514;18.920;2023-05-14T13:22:48;7.20;;;5.50;;
62535;SDS011;63050;47.514;18.920;2023-05-14T13:27:50;5.90;;;4.80;;
62535;SDS011;63050;47.514;18.920;2023-05-14T13:32:51;6.80;;;5.70;;
62535;SDS011;63050;47.514;18.920;2023-05-14T13:37:53;5.50;;;5.00;;
62535;SDS011;63050;47.514;18.920;2023-05-14T13:42:55;5.80;;;5.10;;
62535;SDS011;63050;47.514;18.920;2023-05-14T13:47:56;5.30;;;4.70;;
62535;SDS011;63050;47.514;18.920;2023-05-14T13:52:57;6.70;;;5.10;;
62535;SDS011;63050;47.514;18.920;2023-05-14T13:58:00;5.10;;;4.60;;
62535;SDS011;63050;47.514;18.920;2023-05-14T14:03:01;5.10;;;4.60;;
62535;SDS011;63050;47.514;18.920;2023-05-14T14:08:02;5.50;;;4.80;;
62535;SDS011;63050;47.514;18.920;2023-05-14T14:13:05;5.70;;;4.80;;
62535;SDS011;63050;47.514;18.920;2023-05-14T14:18:06;6.10;;;5.10;;
62535;SDS011;63050;47.514;18.920;2023-05-14T14:23:08;6.70;;;5.10;;
62535;SDS011;63050;47.514;18.920;2023-05-14T14:28:09;6.30;;;4.60;;
62535;SDS011;63050;47.514;18.920;2023-05-14T14:33:11;4.80;;;4.40;;
62535;SDS011;63050;47.514;18.920;2023-05-14T14:38:12;5.40;;;4.90;;
62535;SDS011;63050;47.514;18.920;2023-05-14T14:43:14;7.10;;;3.90;;
62535;SDS011;63050;47.514;18.920;2023-05-14T14:53:27;3.30;;;3.00;;
62535;SDS011;63050;47.514;18.920;2023-05-14T14:58:29;3.00;;;2.70;;
62535;SDS011;63050;47.514;18.920;2023-05-14T15:03:30;4.10;;;3.70;;
62535;SDS011;63050;47.514;18.920;2023-05-14T15:08:32;3.00;;;2.00;;
62535;SDS011;63050;47.514;18.920;2023-05-14T15:13:35;2.30;;;1.90;;
62535;SDS011;63050;47.514;18.920;2023-05-14T15:18:36;2.50;;;1.90;;
62535;SDS011;63050;47.514;18.920;2023-05-14T15:23:37;2.80;;;2.20;;
62535;SDS011;63050;47.514;18.920;2023-05-14T15:28:40;2.90;;;2.10;;
62535;SDS011;63050;47.514;18.920;2023-05-14T15:33:41;3.60;;;1.80;;
62535;SDS011;63050;47.514;18.920;2023-05-14T15:38:42;2.50;;;2.00;;
62535;SDS011;63050;47.514;18.920;2023-05-14T15:43:43;2.30;;;2.00;;
62535;SDS011;63050;47.514;18.920;2023-05-14T15:48:45;2.60;;;1.90;;
62535;SDS011;63050;47.514;18.920;2023-05-14T15:53:46;2.50;;;2.00;;
62535;SDS011;63050;47.514;18.920;2023-05-14T15:58:48;8.10;;;3.20;;
62535;SDS011;63050;47.514;18.920;2023-05-14T16:03:50;2.50;;;2.10;;
62535;SDS011;63050;47.514;18.920;2023-05-14T16:08:52;3.10;;;2.20;;
62535;SDS011;63050;47.514;18.920;2023-05-14T16:13:53;3.20;;;2.20;;
62535;SDS011;63050;47.514;18.920;2023-05-14T16:18:56;3.10;;;2.50;;
62535;SDS011;63050;47.514;18.920;2023-05-14T16:23:57;3.20;;;2.30;;
62535;SDS011;63050;47.514;18.920;2023-05-14T16:28:59;2.60;;;2.20;;
62535;SDS011;63050;47.514;18.920;2023-05-14T16:34:00;3.80;;;3.00;;
62535;SDS011;63050;47.514;18.920;2023-05-14T16:39:01;3.70;;;2.70;;
62535;SDS011;63050;47.514;18.920;2023-05-14T16:44:03;3.10;;;2.60;;
62535;SDS011;63050;47.514;18.920;2023-05-14T16:49:04;3.40;;;3.00;;
62535;SDS011;63050;47.514;18.920;2023-05-14T16:54:05;7.60;;;6.90;;
62535;SDS011;63050;47.514;18.920;2023-05-14T16:59:06;3.40;;;3.10;;
62535;SDS011;63050;47.514;18.920;2023-05-14T17:04:08;4.10;;;2.80;;
62535;SDS011;63050;47.514;18.920;2023-05-14T17:09:09;2.80;;;2.50;;
62535;SDS011;63050;47.514;18.920;2023-05-14T17:14:11;3.60;;;2.00;;
62535;SDS011;63050;47.514;18.920;2023-05-14T17:19:12;3.30;;;2.00;;
62535;SDS011;63050;47.514;18.920;2023-05-14T17:24:14;4.00;;;3.50;;
62535;SDS011;63050;47.514;18.920;2023-05-14T17:29:15;2.30;;;1.70;;
62535;SDS011;63050;47.514;18.920;2023-05-14T17:34:16;2.60;;;1.60;;
62535;SDS011;63050;47.514;18.920;2023-05-14T17:39:18;2.40;;;1.90;;
62535;SDS011;63050;47.514;18.920;2023-05-14T17:44:19;3.30;;;2.20;;
62535;SDS011;63050;47.514;18.920;2023-05-14T17:49:21;5.30;;;3.80;;
62535;SDS011;63050;47.514;18.920;2023-05-14T17:54:22;2.90;;;1.60;;
62535;SDS011;63050;47.514;18.920;2023-05-14T17:59:23;3.80;;;3.10;;
62535;SDS011;63050;47.514;18.920;2023-05-14T18:04:25;3.40;;;1.80;;
62535;SDS011;63050;47.514;18.920;2023-05-14T18:09:26;5.50;;;4.90;;
62535;SDS011;63050;47.514;18.920;2023-05-14T18:14:29;6.30;;;5.80;;
62535;SDS011;63050;47.514;18.920;2023-05-14T18:19:30;3.10;;;2.80;;
62535;SDS011;63050;47.514;18.920;2023-05-14T18:24:32;4.80;;;3.10;;
62535;SDS011;63050;47.514;18.920;2023-05-14T18:29:34;4.20;;;2.90;;
62535;SDS011;63050;47.514;18.920;2023-05-14T18:34:36;4.60;;;3.90;;
62535;SDS011;63050;47.514;18.920;2023-05-14T18:39:38;4.70;;;3.80;;
62535;SDS011;63050;47.514;18.920;2023-05-14T18:44:41;5.50;;;4.40;;
62535;SDS011;63050;47.514;18.920;2023-05-14T18:49:44;4.50;;;3.50;;
62535;SDS011;63050;47.514;18.920;2023-05-14T18:54:47;4.80;;;3.10;;
62535;SDS011;63050;47.514;18.920;2023-05-14T18:59:51;3.80;;;3.30;;
62535;SDS011;63050;47.514;18.920;2023-05-14T19:04:53;7.20;;;2.90;;
62535;SDS011;63050;47.514;18.920;2023-05-14T19:09:55;3.50;;;3.20;;
62535;SDS011;63050;47.514;18.920;2023-05-14T19:14:59;4.20;;;3.80;;
62535;SDS011;63050;47.514;18.920;2023-05-14T19:20:01;4.10;;;2.70;;
62535;SDS011;63050;47.514;18.920;2023-05-14T19:25:02;3.40;;;2.50;;
62535;SDS011;63050;47.514;18.920;2023-05-14T19:30:06;3.10;;;1.90;;
62535;SDS011;63050;47.514;18.920;2023-05-14T19:35:09;3.20;;;1.90;;
62535;SDS011;63050;47.514;18.920;2023-05-14T19:40:11;2.90;;;1.90;;
62535;SDS011;63050;47.514;18.920;2023-05-14T19:45:13;2.80;;;1.60;;
62535;SDS011;63050;47.514;18.920;2023-05-14T19:50:15;2.10;;;1.70;;
62535;SDS011;63050;47.514;18.920;2023-05-14T19:55:18;2.10;;;1.30;;
62535;SDS011;63050;47.514;18.920;2023-05-14T20:00:20;3.90;;;1.70;;
62535;SDS011;63050;47.514;18.920;2023-05-14T20:05:24;2.50;;;1.60;;
62535;SDS011;63050;47.514;18.920;2023-05-14T20:10:26;1.90;;;1.60;;
62535;SDS011;63050;47.514;18.920;2023-05-14T20:15:28;2.30;;;1.80;;
62535;SDS011;63050;47.514;18.920;2023-05-14T20:20:30;2.70;;;2.30;;
62535;SDS011;63050;47.514;18.920;2023-05-14T20:25:31;2.70;;;2.20;;
62535;SDS011;63050;47.514;18.920;2023-05-14T20:30:32;2.90;;;2.10;;
62535;SDS011;63050;47.514;18.920;2023-05-14T20:35:34;2.20;;;1.80;;
62535;SDS011;63050;47.514;18.920;2023-05-14T20:40:35;2.90;;;2.20;;
62535;SDS011;63050;47.514;18.920;2023-05-14T20:45:38;2.80;;;2.00;;
62535;SDS011;63050;47.514;18.920;2023-05-14T20:50:40;3.50;;;2.20;;
62535;SDS011;63050;47.514;18.920;2023-05-14T20:55:41;3.30;;;2.40;;
62535;SDS011;63050;47.514;18.920;2023-05-14T21:00:44;3.20;;;2.70;;
62535;SDS011;63050;47.514;18.920;2023-05-14T21:05:45;3.90;;;2.70;;
62535;SDS011;63050;47.514;18.920;2023-05-14T21:10:46;3.70;;;3.30;;
62535;SDS011;63050;47.514;18.920;2023-05-14T21:15:48;4.60;;;3.60;;
62535;SDS011;63050;47.514;18.920;2023-05-14T21:20:49;4.30;;;3.60;;
62535;SDS011;63050;47.514;18.920;2023-05-14T21:25:51;4.00;;;3.60;;
62535;SDS011;63050;47.514;18.920;2023-05-14T21:30:55;4.20;;;3.60;;
62535;SDS011;63050;47.514;18.920;2023-05-14T21:35:57;4.40;;;3.50;;
62535;SDS011;63050;47.514;18.920;2023-05-14T21:40:58;3.90;;;3.20;;
62535;SDS011;63050;47.514;18.920;2023-05-14T21:46:01;3.90;;;3.50;;
62535;SDS011;63050;47.514;18.920;2023-05-14T21:51:03;3.90;;;3.40;;
62535;SDS011;63050;47.514;18.920;2023-05-14T21:56:04;3.90;;;3.30;;
62535;SDS011;63050;47.514;18.920;2023-05-14T22:01:06;4.20;;;3.40;;
62535;SDS011;63050;47.514;18.920;2023-05-14T22:06:10;4.90;;;3.70;;
62535;SDS011;63050;47.514;18.920;2023-05-14T22:11:12;3.90;;;3.40;;
62535;SDS011;63050;47.514;18.920;2023-05-14T22:16:15;3.90;;;3.50;;
62535;SDS011;63050;47.514;18.920;2023-05-14T22:21:16;4.20;;;3.80;;
62535;SDS011;63050;47.514;18.920;2023-05-14T22:26:17;3.80;;;3.40;;
62535;SDS011;63050;47.514;18.920;2023-05-14T22:31:19;4.20;;;3.70;;
62535;SDS011;63050;47.514;18.920;2023-05-14T22:36:20;4.30;;;3.80;;
62535;SDS011;63050;47.514;18.920;2023-05-14T22:41:22;4.90;;;4.20;;
62535;SDS011;63050;47.514;18.920;2023-05-14T22:46:24;5.60;;;3.70;;
62535;SDS011;63050;47.514;18.920;2023-05-14T22:51:26;4.80;;;3.50;;
62535;SDS011;63050;47.514;18.920;2023-05-14T22:56:28;3.80;;;3.40;;
62535;SDS011;63050;47.514;18.920;2023-05-14T23:01:29;3.80;;;3.40;;
62535;SDS011;63050;47.514;18.920;2023-05-14T23:06:31;4.30;;;3.90;;
62535;SDS011;63050;47.514;18.920;2023-05-14T23:11:33;4.50;;;3.50;;
62535;SDS011;63050;47.514;18.920;2023-05-14T23:16:35;4.40;;;3.30;;
62535;SDS011;63050;47.514;18.920;2023-05-14T23:21:36;4.00;;;3.50;;
62535;SDS011;63050;47.514;18.920;2023-05-14T23:26:37;3.40;;;3.10;;
62535;SDS011;63050;47.514;18.920;2023-05-14T23:31:39;4.50;;;3.50;;
62535;SDS011;63050;47.514;18.920;2023-05-14T23:36:40;4.00;;;3.60;;
62535;SDS011;63050;47.514;18.920;2023-05-14T23:41:42;3.50;;;3.20;;
62535;SDS011;63050;47.514;18.920;2023-05-14T23:46:45;3.60;;;2.80;;
62535;SDS011;63050;47.514;18.920;2023-05-14T23:51:46;3.20;;;2.40;;
62535;SDS011;63050;47.514;18.920;2023-05-14T23:56:48;3.30;;;3.00;;
